createdAt,value
2019-04-05T00:00:49.451Z,49.70
2019-04-05T00:01:49.394Z,50.60
2019-04-05T00:02:49.365Z,49.50
2019-04-05T00:03:49.314Z,50.10
2019-04-05T00:04:49.269Z,48.30
2019-04-05T00:05:49.247Z,49.60
2019-04-05T00:06:49.187Z,48.70
2019-04-05T00:07:49.153Z,48.00
2019-04-05T00:08:49.085Z,51.20
2019-04-05T00:09:49.045Z,48.80
2019-04-05T00:10:49.007Z,48.30
2019-04-05T00:11:48.965Z,47.70
2019-04-05T00:12:48.940Z,48.30
2019-04-05T00:13:48.875Z,49.00
2019-04-05T00:14:48.836Z,49.30
2019-04-05T00:15:48.775Z,48.60
2019-04-05T00:16:48.753Z,47.90
2019-04-05T00:17:48.691Z,46.70
2019-04-05T00:18:48.672Z,47.50
2019-04-05T00:19:48.604Z,48.00
2019-04-05T00:20:48.555Z,47.50
2019-04-05T00:21:48.508Z,46.60
2019-04-05T00:22:48.458Z,46.80
2019-04-05T00:23:48.443Z,43.90
2019-04-05T00:24:48.394Z,46.00
2019-04-05T00:25:48.330Z,47.10
2019-04-05T00:26:48.283Z,47.10
2019-04-05T00:27:48.235Z,48.00
2019-04-05T00:28:48.219Z,46.80
2019-04-05T00:29:48.156Z,47.40
2019-04-05T00:30:48.111Z,47.20
2019-04-05T00:31:48.067Z,46.00
2019-04-05T00:32:48.019Z,47.70
2019-04-05T00:33:47.978Z,46.40
2019-04-05T00:34:47.957Z,48.00
2019-04-05T00:35:47.880Z,46.80
2019-04-05T00:36:47.842Z,45.20
2019-04-05T00:37:47.803Z,46.40
2019-04-05T00:38:47.768Z,44.90
2019-04-05T00:39:47.707Z,45.10
2019-04-05T00:40:47.691Z,46.50
2019-04-05T00:41:47.625Z,43.70
2019-04-05T00:42:47.580Z,46.40
2019-04-05T00:43:47.541Z,47.50
2019-04-05T00:44:47.503Z,47.70
2019-04-05T00:45:47.446Z,48.00
2019-04-05T00:46:47.423Z,48.70
2019-04-05T00:47:47.347Z,48.20
2019-04-05T00:48:47.304Z,46.70
2019-04-05T00:49:47.267Z,47.20
2019-04-05T00:50:47.219Z,46.30
2019-04-05T00:51:47.183Z,47.70
2019-04-05T00:52:47.166Z,47.50
2019-04-05T00:53:47.084Z,46.90
2019-04-05T00:54:47.066Z,48.10
2019-04-05T00:55:47.001Z,47.10
2019-04-05T00:56:46.958Z,47.60
2019-04-05T00:57:49.433Z,47.00
2019-04-05T00:58:46.862Z,48.30
2019-04-05T00:59:46.841Z,49.20
2019-04-05T01:00:46.775Z,49.50
2019-04-05T01:01:46.745Z,49.20
2019-04-05T01:02:46.697Z,50.60
2019-04-05T01:03:46.654Z,50.50
2019-04-05T01:04:46.662Z,49.90
2019-04-05T01:05:46.582Z,49.50
2019-04-05T01:06:46.509Z,49.90
2019-04-05T01:07:46.489Z,50.80
2019-04-05T01:08:46.434Z,49.90
2019-04-05T01:09:46.378Z,51.20
2019-04-05T01:10:46.334Z,51.60
2019-04-05T01:11:46.305Z,50.50
2019-04-05T01:12:46.242Z,50.20
2019-04-05T01:13:46.228Z,51.40
2019-04-05T01:14:46.160Z,50.90
2019-04-05T01:15:46.115Z,51.50
2019-04-05T01:16:46.071Z,51.60
2019-04-05T01:17:46.027Z,52.20
2019-04-05T01:18:45.998Z,51.80
2019-04-05T01:19:45.928Z,49.90
2019-04-05T01:20:45.886Z,51.60
2019-04-05T01:21:45.847Z,49.60
2019-04-05T01:22:45.811Z,49.30
2019-04-05T01:23:45.783Z,51.70
2019-04-05T01:24:45.714Z,49.60
2019-04-05T01:25:45.688Z,49.60
2019-04-05T01:26:45.623Z,50.90
2019-04-05T01:27:48.353Z,52.50
2019-04-05T01:28:45.542Z,52.80
2019-04-05T01:29:45.486Z,54.20
2019-04-05T01:30:45.467Z,55.10
2019-04-05T01:31:45.403Z,54.80
2019-04-05T01:32:45.361Z,54.40
2019-04-05T01:33:45.323Z,54.10
2019-04-05T01:34:45.273Z,54.50
2019-04-05T01:35:45.263Z,56.00
2019-04-05T01:36:45.186Z,54.50
2019-04-05T01:37:45.127Z,55.50
2019-04-05T01:38:45.086Z,55.40
2019-04-05T01:39:45.045Z,55.20
2019-04-05T01:40:45.004Z,56.10
2019-04-05T01:41:44.992Z,55.60
2019-04-05T01:42:44.916Z,55.10
2019-04-05T01:43:44.865Z,54.90
2019-04-05T01:44:44.819Z,54.50
2019-04-05T01:45:53.608Z,55.80
2019-04-05T01:46:44.734Z,54.70
2019-04-05T01:47:44.722Z,52.90
2019-04-05T01:48:44.652Z,54.80
2019-04-05T01:49:44.603Z,53.20
2019-04-05T01:50:44.555Z,53.80
2019-04-05T01:51:44.509Z,54.40
2019-04-05T01:52:44.474Z,54.20
2019-04-05T01:53:44.461Z,53.10
2019-04-05T01:54:44.389Z,54.00
2019-04-05T01:55:44.368Z,54.20
2019-04-05T01:56:44.291Z,52.60
2019-04-05T01:57:44.243Z,52.50
2019-04-05T01:58:44.220Z,54.90
2019-04-05T01:59:44.189Z,54.00
2019-04-05T02:00:44.124Z,55.50
2019-04-05T02:01:44.063Z,56.00
2019-04-05T02:02:44.025Z,53.50
2019-04-05T02:03:43.987Z,56.10
2019-04-05T02:04:43.958Z,55.50
2019-04-05T02:05:43.894Z,55.50
2019-04-05T02:06:43.855Z,54.50
2019-04-05T02:07:43.811Z,55.30
2019-04-05T02:08:43.766Z,54.10
2019-04-05T02:09:43.745Z,52.80
2019-04-05T02:10:43.669Z,53.60
2019-04-05T02:11:43.630Z,54.80
2019-04-05T02:12:43.574Z,54.10
2019-04-05T02:13:43.545Z,51.70
2019-04-05T02:14:43.498Z,54.20
2019-04-05T02:15:43.477Z,54.80
2019-04-05T02:16:43.407Z,52.00
2019-04-05T02:17:43.389Z,51.80
2019-04-05T02:18:43.328Z,52.70
2019-04-05T02:19:43.278Z,50.80
2019-04-05T02:20:43.255Z,51.70
2019-04-05T02:21:43.183Z,50.40
2019-04-05T02:22:43.136Z,52.00
2019-04-05T02:23:43.120Z,52.60
2019-04-05T02:24:43.045Z,52.30
2019-04-05T02:25:43.030Z,51.20
2019-04-05T02:26:42.965Z,50.40
2019-04-05T02:27:42.923Z,50.70
2019-04-05T02:28:42.877Z,50.70
2019-04-05T02:29:42.850Z,49.50
2019-04-05T02:30:42.780Z,48.80
2019-04-05T02:31:42.771Z,48.50
2019-04-05T02:32:42.702Z,49.70
2019-04-05T02:33:42.656Z,51.40
2019-04-05T02:34:42.610Z,52.10
2019-04-05T02:35:42.583Z,49.00
2019-04-05T02:36:42.539Z,53.00
2019-04-05T02:37:42.479Z,52.10
2019-04-05T02:38:42.436Z,51.90
2019-04-05T02:39:42.397Z,51.80
2019-04-05T02:40:42.348Z,51.40
2019-04-05T02:41:42.344Z,52.00
2019-04-05T02:42:42.253Z,50.80
2019-04-05T02:43:42.211Z,51.40
2019-04-05T02:44:42.158Z,52.20
2019-04-05T02:45:42.145Z,54.40
2019-04-05T02:46:42.082Z,53.50
2019-04-05T02:47:42.058Z,54.60
2019-04-05T02:48:41.992Z,53.50
2019-04-05T02:49:41.953Z,52.40
2019-04-05T02:50:41.912Z,53.80
2019-04-05T02:51:41.856Z,53.60
2019-04-05T02:52:41.805Z,52.60
2019-04-05T02:53:41.770Z,52.90
2019-04-05T02:54:41.719Z,54.70
2019-04-05T02:55:41.695Z,54.40
2019-04-05T02:56:41.621Z,54.80
2019-04-05T02:57:41.585Z,54.60
2019-04-05T02:58:41.560Z,56.00
2019-04-05T02:59:41.510Z,56.70
2019-04-05T03:00:41.444Z,57.70
2019-04-05T03:01:41.399Z,56.80
2019-04-05T03:02:41.349Z,57.40
2019-04-05T03:03:41.313Z,57.30
2019-04-05T03:04:41.292Z,57.50
2019-04-05T03:05:41.218Z,57.20
2019-04-05T03:06:41.176Z,56.60
2019-04-05T03:07:41.131Z,57.60
2019-04-05T03:08:41.091Z,56.00
2019-04-05T03:09:41.043Z,57.40
2019-04-05T03:10:41.030Z,58.20
2019-04-05T03:11:40.959Z,57.00
2019-04-05T03:12:40.997Z,57.30
2019-04-05T03:13:40.896Z,56.20
2019-04-05T03:14:40.817Z,56.90
2019-04-05T03:15:40.771Z,56.20
2019-04-05T03:16:41.838Z,55.80
2019-04-05T03:17:40.690Z,55.70
2019-04-05T03:18:40.666Z,54.90
2019-04-05T03:19:40.616Z,55.50
2019-04-05T03:20:40.556Z,56.20
2019-04-05T03:21:40.516Z,56.30
2019-04-05T03:22:40.500Z,56.60
2019-04-05T03:23:40.426Z,57.80
2019-04-05T03:24:40.427Z,58.00
2019-04-05T03:25:40.334Z,59.20
2019-04-05T03:26:40.284Z,59.20
2019-04-05T03:27:40.241Z,59.90
2019-04-05T03:28:40.198Z,59.10
2019-04-05T03:29:40.183Z,59.60
2019-04-05T03:30:40.115Z,57.10
2019-04-05T03:31:40.080Z,57.20
2019-04-05T03:32:40.033Z,56.70
2019-04-05T03:33:39.992Z,55.90
2019-04-05T03:34:39.984Z,57.10
2019-04-05T03:35:39.896Z,57.70
2019-04-05T03:36:39.854Z,57.60
2019-04-05T03:37:39.799Z,58.00
2019-04-05T03:38:39.756Z,59.10
2019-04-05T03:39:39.750Z,57.50
2019-04-05T03:40:39.673Z,59.00
2019-04-05T03:41:39.633Z,58.90
2019-04-05T03:42:39.585Z,58.50
2019-04-05T03:43:39.534Z,59.10
2019-04-05T03:44:39.516Z,59.50
2019-04-05T03:45:39.438Z,61.00
2019-04-05T03:46:54.737Z,57.80
2019-04-05T03:47:39.354Z,57.80
2019-04-05T03:48:39.308Z,58.80
2019-04-05T03:49:39.296Z,57.50
2019-04-05T03:50:39.227Z,59.90
2019-04-05T03:51:39.176Z,56.30
2019-04-05T03:52:39.132Z,55.90
2019-04-05T03:53:39.109Z,54.90
2019-04-05T03:54:39.076Z,54.60
2019-04-05T03:55:39.013Z,53.60
2019-04-05T03:56:38.962Z,57.20
2019-04-05T03:57:38.914Z,55.50
2019-04-05T03:58:38.880Z,53.80
2019-04-05T03:59:38.823Z,52.30
2019-04-05T04:00:38.815Z,52.10
2019-04-05T04:01:38.746Z,52.70
2019-04-05T04:02:38.694Z,53.00
2019-04-05T04:03:38.651Z,53.10
2019-04-05T04:04:38.605Z,55.00
2019-04-05T04:05:38.579Z,54.30
2019-04-05T04:06:38.518Z,54.40
2019-04-05T04:07:38.475Z,53.70
2019-04-05T04:08:38.427Z,52.40
2019-04-05T04:09:38.412Z,52.80
2019-04-05T04:10:38.344Z,52.60
2019-04-05T04:11:38.292Z,52.50
2019-04-05T04:12:38.255Z,51.40
2019-04-05T04:13:38.205Z,49.80
2019-04-05T04:14:38.183Z,51.20
2019-04-05T04:15:38.143Z,51.40
2019-04-05T04:16:38.075Z,52.30
2019-04-05T04:17:38.022Z,54.10
2019-04-05T04:18:37.975Z,52.30
2019-04-05T04:19:37.932Z,54.10
2019-04-05T04:20:37.923Z,54.60
2019-04-05T04:21:37.851Z,51.80
2019-04-05T04:22:37.811Z,54.00
2019-04-05T04:23:37.777Z,54.90
2019-04-05T04:24:37.708Z,55.70
2019-04-05T04:25:37.697Z,54.80
2019-04-05T04:26:37.637Z,56.20
2019-04-05T04:27:37.606Z,55.80
2019-04-05T04:28:37.553Z,55.50
2019-04-05T04:29:37.499Z,55.80
2019-04-05T04:30:37.480Z,55.60
2019-04-05T04:31:37.410Z,55.80
2019-04-05T04:32:37.362Z,57.40
2019-04-05T04:33:37.344Z,56.50
2019-04-05T04:34:37.270Z,58.00
2019-04-05T04:35:37.227Z,57.60
2019-04-05T04:36:37.182Z,58.60
2019-04-05T04:37:37.132Z,57.70
2019-04-05T04:38:37.128Z,58.80
2019-04-05T04:39:37.078Z,58.90
2019-04-05T04:40:37.007Z,58.20
2019-04-05T04:41:36.967Z,60.30
2019-04-05T04:42:36.916Z,60.00
2019-04-05T04:43:36.868Z,59.40
2019-04-05T04:44:36.829Z,59.50
2019-04-05T04:45:36.805Z,57.70
2019-04-05T04:46:36.741Z,58.70
2019-04-05T04:47:36.693Z,56.70
2019-04-05T04:48:36.671Z,53.30
2019-04-05T04:49:36.600Z,51.60
2019-04-05T04:50:36.583Z,54.60
2019-04-05T04:51:36.516Z,55.50
2019-04-05T04:52:36.471Z,54.70
2019-04-05T04:53:36.427Z,54.40
2019-04-05T04:54:36.393Z,55.90
2019-04-05T04:55:36.338Z,52.50
2019-04-05T04:56:36.308Z,52.50
2019-04-05T04:57:36.259Z,53.10
2019-04-05T04:58:36.207Z,50.20
2019-04-05T04:59:36.176Z,49.50
2019-04-05T05:00:36.145Z,50.20
2019-04-05T05:01:36.075Z,51.20
2019-04-05T05:02:36.025Z,51.90
2019-04-05T05:03:36.001Z,52.70
2019-04-05T05:04:35.945Z,52.80
2019-04-05T05:05:35.895Z,51.70
2019-04-05T05:06:35.864Z,52.90
2019-04-05T05:07:35.806Z,52.70
2019-04-05T05:08:35.788Z,54.20
2019-04-05T05:09:35.722Z,53.90
2019-04-05T05:10:35.671Z,54.90
2019-04-05T05:11:35.634Z,53.90
2019-04-05T05:12:35.592Z,55.20
2019-04-05T05:13:35.563Z,55.50
2019-04-05T05:14:35.498Z,54.40
2019-04-05T05:15:35.446Z,52.80
2019-04-05T05:16:35.400Z,53.20
2019-04-05T05:17:38.688Z,52.10
2019-04-05T05:18:35.325Z,53.70
2019-04-05T05:19:35.299Z,53.20
2019-04-05T05:20:35.235Z,54.90
2019-04-05T05:21:35.179Z,55.70
2019-04-05T05:22:35.141Z,55.40
2019-04-05T05:23:35.113Z,55.40
2019-04-05T05:24:35.077Z,48.60
2019-04-05T05:25:35.014Z,46.40
2019-04-05T05:26:34.995Z,41.30
2019-04-05T05:27:34.911Z,38.20
2019-04-05T05:28:34.864Z,35.10
2019-04-05T05:29:34.849Z,33.80
2019-04-05T05:30:34.785Z,32.10
2019-04-05T05:31:34.749Z,32.90
2019-04-05T05:32:34.726Z,33.90
2019-04-05T05:33:34.661Z,31.00
2019-04-05T05:34:34.609Z,30.70
2019-04-05T05:35:34.584Z,30.30
2019-04-05T05:36:34.514Z,30.70
2019-04-05T05:37:34.483Z,31.00
2019-04-05T05:38:34.428Z,31.20
2019-04-05T05:39:34.383Z,30.10
2019-04-05T05:40:35.552Z,31.50
2019-04-05T05:41:34.311Z,29.10
2019-04-05T05:42:34.276Z,29.20
2019-04-05T05:43:34.207Z,29.70
2019-04-05T05:44:34.165Z,29.10
2019-04-05T05:45:34.127Z,29.40
2019-04-05T05:46:34.070Z,29.50
2019-04-05T05:47:34.046Z,30.50
2019-04-05T05:48:33.987Z,29.80
2019-04-05T05:49:34.013Z,29.30
2019-04-05T05:50:33.904Z,28.90
2019-04-05T05:51:33.863Z,28.80
2019-04-05T05:52:33.857Z,28.10
2019-04-05T05:53:33.760Z,28.30
2019-04-05T05:54:33.724Z,28.00
2019-04-05T05:55:33.677Z,27.80
2019-04-05T05:56:33.629Z,27.80
2019-04-05T05:57:33.594Z,27.40
2019-04-05T05:58:33.574Z,26.60
2019-04-05T05:59:33.493Z,27.10
2019-04-05T06:00:33.447Z,26.90
2019-04-05T06:01:33.433Z,27.80
2019-04-05T06:02:33.367Z,27.30
2019-04-05T06:03:33.326Z,27.40
2019-04-05T06:04:33.300Z,26.00
2019-04-05T06:05:33.228Z,26.50
2019-04-05T06:06:33.202Z,26.70
2019-04-05T06:07:33.143Z,26.60
2019-04-05T06:08:33.123Z,25.40
2019-04-05T06:09:33.065Z,25.90
2019-04-05T06:10:33.017Z,27.60
2019-04-05T06:11:32.976Z,26.00
2019-04-05T06:12:32.937Z,25.90
2019-04-05T06:13:32.878Z,28.20
2019-04-05T06:14:32.856Z,30.10
2019-04-05T06:15:32.800Z,29.00
2019-04-05T06:16:45.563Z,30.00
2019-04-05T06:17:32.702Z,30.90
2019-04-05T06:18:32.661Z,32.00
2019-04-05T06:19:32.645Z,31.60
2019-04-05T06:20:32.573Z,32.20
2019-04-05T06:21:32.542Z,31.30
2019-04-05T06:22:32.493Z,31.10
2019-04-05T06:23:33.934Z,32.10
2019-04-05T06:24:32.406Z,32.10
2019-04-05T06:25:32.383Z,33.90
2019-04-05T06:26:32.314Z,33.20
2019-04-05T06:27:35.285Z,33.00
2019-04-05T06:28:32.265Z,33.30
2019-04-05T06:29:32.191Z,34.00
2019-04-05T06:30:32.205Z,34.50
2019-04-05T06:31:32.099Z,33.20
2019-04-05T06:32:32.082Z,33.50
2019-04-05T06:33:32.213Z,33.10
2019-04-05T06:34:31.971Z,34.20
2019-04-05T06:35:31.955Z,32.60
2019-04-05T06:36:31.885Z,33.40
2019-04-05T06:37:31.836Z,33.50
2019-04-05T06:38:31.792Z,34.30
2019-04-05T06:39:31.752Z,32.80
2019-04-05T06:40:40.732Z,33.80
2019-04-05T06:41:31.693Z,32.30
2019-04-05T06:42:31.630Z,32.60
2019-04-05T06:43:31.586Z,34.30
2019-04-05T06:44:31.583Z,32.90
2019-04-05T06:45:31.491Z,32.90
2019-04-05T06:46:31.476Z,32.60
2019-04-05T06:47:31.415Z,31.20
2019-04-05T06:48:31.369Z,30.70
2019-04-05T06:49:31.328Z,32.40
2019-04-05T06:50:31.287Z,30.40
2019-04-05T06:51:31.309Z,31.90
2019-04-05T06:52:31.289Z,30.40
2019-04-05T06:53:31.162Z,29.40
2019-04-05T06:54:31.114Z,31.20
2019-04-05T06:55:31.088Z,32.20
2019-04-05T06:56:31.031Z,30.40
2019-04-05T06:57:31.005Z,31.40
2019-04-05T06:58:30.947Z,31.80
2019-04-05T06:59:30.906Z,30.70
2019-04-05T07:00:30.874Z,30.20
2019-04-05T07:01:30.962Z,30.20
2019-04-05T07:02:30.884Z,32.30
2019-04-05T07:03:30.794Z,31.20
2019-04-05T07:04:31.204Z,32.40
2019-04-05T07:05:30.673Z,31.30
2019-04-05T07:06:30.642Z,31.00
2019-04-05T07:07:30.601Z,30.80
2019-04-05T07:08:30.796Z,29.90
2019-04-05T07:09:30.498Z,31.20
2019-04-05T07:10:30.509Z,32.70
2019-04-05T07:11:30.402Z,31.90
2019-04-05T07:12:30.395Z,32.30
2019-04-05T07:13:30.526Z,31.30
2019-04-05T07:14:30.298Z,32.40
2019-04-05T07:15:30.257Z,31.10
2019-04-05T07:16:30.289Z,32.30
2019-04-05T07:17:30.172Z,32.10
2019-04-05T07:18:35.650Z,32.20
2019-04-05T07:19:30.125Z,34.00
2019-04-05T07:20:30.080Z,33.30
2019-04-05T07:21:30.026Z,32.40
2019-04-05T07:22:37.207Z,30.60
2019-04-05T07:23:29.927Z,29.20
2019-04-05T07:24:29.879Z,30.00
2019-04-05T07:25:29.889Z,27.90
2019-04-05T07:26:29.886Z,27.90
2019-04-05T07:27:29.766Z,28.40
2019-04-05T07:28:29.716Z,28.90
2019-04-05T07:29:29.683Z,27.80
2019-04-05T07:30:29.660Z,26.10
2019-04-05T07:31:29.590Z,28.50
2019-04-05T07:32:31.294Z,28.00
2019-04-05T07:33:29.527Z,27.30
2019-04-05T07:34:29.475Z,27.30
2019-04-05T07:35:33.695Z,26.60
2019-04-05T07:36:29.439Z,26.70
2019-04-05T07:37:29.355Z,26.60
2019-04-05T07:38:29.384Z,27.50
2019-04-05T07:39:29.302Z,25.10
2019-04-05T07:40:29.244Z,23.80
2019-04-05T07:41:31.683Z,24.10
2019-04-05T07:42:29.157Z,23.70
2019-04-05T07:43:29.187Z,23.00
2019-04-05T07:44:29.088Z,19.20
2019-04-05T07:45:29.017Z,19.40
2019-04-05T07:46:29.021Z,18.50
2019-04-05T07:47:28.932Z,17.90
2019-04-05T07:48:28.925Z,18.10
2019-04-05T07:49:28.859Z,18.40
2019-04-05T07:50:28.831Z,18.60
2019-04-05T07:51:28.819Z,17.60
2019-04-05T07:52:28.739Z,17.10
2019-04-05T07:53:28.681Z,17.10
2019-04-05T07:54:28.668Z,17.20
2019-04-05T07:55:28.624Z,16.50
2019-04-05T07:56:28.578Z,15.80
2019-04-05T07:57:28.533Z,15.10
2019-04-05T07:58:28.501Z,14.70
2019-04-05T07:59:28.490Z,15.20
2019-04-05T08:00:28.427Z,15.10
2019-04-05T08:01:28.369Z,15.30
2019-04-05T08:02:28.331Z,15.20
2019-04-05T08:03:28.297Z,15.00
2019-04-05T08:04:28.322Z,15.10
2019-04-05T08:05:28.269Z,13.90
2019-04-05T08:06:28.217Z,14.10
2019-04-05T08:07:28.167Z,14.10
2019-04-05T08:08:28.116Z,14.30
2019-04-05T08:09:28.108Z,14.10
2019-04-05T08:10:28.045Z,15.80
2019-04-05T08:11:28.038Z,15.90
2019-04-05T08:12:27.967Z,15.40
2019-04-05T08:13:27.928Z,15.10
2019-04-05T08:14:27.877Z,15.60
2019-04-05T08:15:27.856Z,15.50
2019-04-05T08:16:27.808Z,14.90
2019-04-05T08:17:27.875Z,13.10
2019-04-05T08:18:27.736Z,13.90
2019-04-05T08:19:27.702Z,13.80
2019-04-05T08:20:27.649Z,14.20
2019-04-05T08:21:27.651Z,14.20
2019-04-05T08:22:27.586Z,14.50
2019-04-05T08:23:27.586Z,14.40
2019-04-05T08:24:27.521Z,14.40
2019-04-05T08:25:27.454Z,13.70
2019-04-05T08:26:27.541Z,13.90
2019-04-05T08:27:27.401Z,13.00
2019-04-05T08:28:29.653Z,12.60
2019-04-05T08:29:27.323Z,12.80
2019-04-05T08:30:27.328Z,12.20
2019-04-05T08:31:27.351Z,11.90
2019-04-05T08:32:27.195Z,11.90
2019-04-05T08:33:27.170Z,12.20
2019-04-05T08:34:27.143Z,11.60
2019-04-05T08:35:27.111Z,11.60
2019-04-05T08:36:27.069Z,11.70
2019-04-05T08:37:27.021Z,11.80
2019-04-05T08:38:27.044Z,10.80
2019-04-05T08:39:26.953Z,11.10
2019-04-05T08:40:26.910Z,11.20
2019-04-05T08:41:26.921Z,10.40
2019-04-05T08:42:26.831Z,10.80
2019-04-05T08:43:26.800Z,10.20
2019-04-05T08:44:26.763Z,10.60
2019-04-05T08:45:26.719Z,10.50
2019-04-05T08:46:26.789Z,10.70
2019-04-05T08:47:26.642Z,10.80
2019-04-05T08:48:26.975Z,10.60
2019-04-05T08:49:26.581Z,11.00
2019-04-05T08:50:26.601Z,10.90
2019-04-05T08:51:26.584Z,11.30
2019-04-05T08:52:27.134Z,10.90
2019-04-05T08:53:26.438Z,10.90
2019-04-05T08:54:32.441Z,11.20
2019-04-05T08:55:26.379Z,11.50
2019-04-05T08:56:26.347Z,11.40
2019-04-05T08:57:26.386Z,10.60
2019-04-05T08:58:33.248Z,10.70
2019-04-05T08:59:26.200Z,11.20
2019-04-05T09:00:26.234Z,11.20
2019-04-05T09:01:26.136Z,11.20
2019-04-05T09:02:26.156Z,11.80
2019-04-05T09:03:26.056Z,12.10
2019-04-05T09:04:26.009Z,12.40
2019-04-05T09:05:25.974Z,12.40
2019-04-05T09:06:25.934Z,12.70
2019-04-05T09:07:25.891Z,12.20
2019-04-05T09:08:25.878Z,13.50
2019-04-05T09:09:25.845Z,13.30
2019-04-05T09:10:25.772Z,13.10
2019-04-05T09:11:25.727Z,13.50
2019-04-05T09:12:25.839Z,14.20
2019-04-05T09:13:25.661Z,13.60
2019-04-05T09:14:25.663Z,14.00
2019-04-05T09:15:25.767Z,13.60
2019-04-05T09:16:25.704Z,14.90
2019-04-05T09:17:25.492Z,14.40
2019-04-05T09:18:25.624Z,15.30
2019-04-05T09:19:25.481Z,14.00
2019-04-05T09:20:25.377Z,14.80
2019-04-05T09:21:25.362Z,14.90
2019-04-05T09:22:25.302Z,15.50
2019-04-05T09:23:25.274Z,15.80
2019-04-05T09:24:25.252Z,16.30
2019-04-05T09:25:25.206Z,15.30
2019-04-05T09:26:25.149Z,15.60
2019-04-05T09:27:25.107Z,16.10
2019-04-05T09:28:25.074Z,16.20
2019-04-05T09:29:25.339Z,16.10
2019-04-05T09:30:25.012Z,16.50
2019-04-05T09:31:24.943Z,16.40
2019-04-05T09:32:24.907Z,16.60
2019-04-05T09:33:24.865Z,16.80
2019-04-05T09:34:24.827Z,16.30
2019-04-05T09:35:24.828Z,16.50
2019-04-05T09:36:24.782Z,17.10
2019-04-05T09:37:24.696Z,16.70
2019-04-05T09:38:24.686Z,17.20
2019-04-05T09:39:24.624Z,16.80
2019-04-05T09:40:24.600Z,17.00
2019-04-05T09:41:24.659Z,15.90
2019-04-05T09:42:24.506Z,16.80
2019-04-05T09:43:24.462Z,16.90
2019-04-05T09:44:24.428Z,17.10
2019-04-05T09:45:24.386Z,18.00
2019-04-05T09:46:24.381Z,17.10
2019-04-05T09:47:24.297Z,17.90
2019-04-05T09:48:24.251Z,18.10
2019-04-05T09:49:36.170Z,18.30
2019-04-05T09:50:24.188Z,18.40
2019-04-05T09:51:24.145Z,18.10
2019-04-05T09:52:24.120Z,18.40
2019-04-05T09:53:24.052Z,18.00
2019-04-05T09:54:24.022Z,17.50
2019-04-05T09:55:23.992Z,18.40
2019-04-05T09:56:23.964Z,18.60
2019-04-05T09:57:23.918Z,17.60
2019-04-05T09:58:23.881Z,18.70
2019-04-05T09:59:23.818Z,18.90
2019-04-05T10:00:23.785Z,18.60
2019-04-05T10:01:23.735Z,18.80
2019-04-05T10:02:23.708Z,19.00
2019-04-05T10:03:23.685Z,17.70
2019-04-05T10:04:23.617Z,19.00
2019-04-05T10:05:23.655Z,18.90
2019-04-05T10:06:23.539Z,20.00
2019-04-05T10:07:23.535Z,20.00
2019-04-05T10:08:23.514Z,19.80
2019-04-05T10:09:23.439Z,19.90
2019-04-05T10:10:23.404Z,19.70
2019-04-05T10:11:23.328Z,19.90
2019-04-05T10:12:23.303Z,20.00
2019-04-05T10:13:23.259Z,20.40
2019-04-05T10:14:23.270Z,20.30
2019-04-05T10:15:23.208Z,20.40
2019-04-05T10:16:23.129Z,20.30
2019-04-05T10:17:23.103Z,20.40
2019-04-05T10:18:23.087Z,20.20
2019-04-05T10:19:23.040Z,18.70
2019-04-05T10:20:23.032Z,19.00
2019-04-05T10:21:22.939Z,19.60
2019-04-05T10:22:22.908Z,19.70
2019-04-05T10:23:22.865Z,18.10
2019-04-05T10:24:22.835Z,18.20
2019-04-05T10:25:22.841Z,18.70
2019-04-05T10:26:22.757Z,19.30
2019-04-05T10:27:23.084Z,19.00
2019-04-05T10:28:22.675Z,18.30
2019-04-05T10:29:22.674Z,18.30
2019-04-05T10:30:22.584Z,18.80
2019-04-05T10:31:22.558Z,18.30
2019-04-05T10:32:22.519Z,18.20
2019-04-05T10:33:22.478Z,18.70
2019-04-05T10:34:22.463Z,18.20
2019-04-05T10:35:22.402Z,18.70
2019-04-05T10:36:22.340Z,18.10
2019-04-05T10:37:22.349Z,18.10
2019-04-05T10:38:22.289Z,18.80
2019-04-05T10:39:22.238Z,18.10
2019-04-05T10:40:22.229Z,17.30
2019-04-05T10:41:23.161Z,16.70
2019-04-05T10:42:22.149Z,17.70
2019-04-05T10:43:22.099Z,17.80
2019-04-05T10:44:22.040Z,18.00
2019-04-05T10:45:22.028Z,18.10
2019-04-05T10:46:22.011Z,17.70
2019-04-05T10:47:21.938Z,18.20
2019-04-05T10:48:21.903Z,17.00
2019-04-05T10:49:21.877Z,17.10
2019-04-05T10:50:21.856Z,16.90
2019-04-05T10:51:21.823Z,16.00
2019-04-05T10:52:21.760Z,15.90
2019-04-05T10:53:21.708Z,14.90
2019-04-05T10:54:21.671Z,15.20
2019-04-05T10:55:21.681Z,15.30
2019-04-05T10:56:21.598Z,16.10
2019-04-05T10:57:21.614Z,15.50
2019-04-05T10:58:21.539Z,15.60
2019-04-05T10:59:21.493Z,16.90
2019-04-05T11:00:21.473Z,16.80
2019-04-05T11:01:21.442Z,15.70
2019-04-05T11:02:21.385Z,16.70
2019-04-05T11:03:21.378Z,17.40
2019-04-05T11:04:21.312Z,17.80
2019-04-05T11:05:21.272Z,17.80
2019-04-05T11:06:21.278Z,18.60
2019-04-05T11:07:21.193Z,20.00
2019-04-05T11:08:21.175Z,20.90
2019-04-05T11:09:21.156Z,19.40
2019-04-05T11:10:21.097Z,19.30
2019-04-05T11:11:21.103Z,18.80
2019-04-05T11:12:21.021Z,18.70
2019-04-05T11:13:21.003Z,19.60
2019-04-05T11:14:20.931Z,19.20
2019-04-05T11:15:20.918Z,18.70
2019-04-05T11:16:20.895Z,19.40
2019-04-05T11:17:20.838Z,19.10
2019-04-05T11:18:20.783Z,17.80
2019-04-05T11:19:20.737Z,17.30
2019-04-05T11:20:21.736Z,17.60
2019-04-05T11:21:20.679Z,17.00
2019-04-05T11:22:21.182Z,16.90
2019-04-05T11:23:21.437Z,16.60
2019-04-05T11:24:20.587Z,16.30
2019-04-05T11:25:21.109Z,15.90
2019-04-05T11:26:20.516Z,16.40
2019-04-05T11:27:20.450Z,17.00
2019-04-05T11:28:20.405Z,17.50
2019-04-05T11:29:20.367Z,16.50
2019-04-05T11:30:20.376Z,17.00
2019-04-05T11:31:20.322Z,17.10
2019-04-05T11:32:20.237Z,17.00
2019-04-05T11:33:20.201Z,17.70
2019-04-05T11:34:20.155Z,17.30
2019-04-05T11:35:20.174Z,17.90
2019-04-05T11:36:20.093Z,18.30
2019-04-05T11:37:20.067Z,17.60
2019-04-05T11:38:20.009Z,17.80
2019-04-05T11:39:19.978Z,17.40
2019-04-05T11:40:19.950Z,18.30
2019-04-05T11:41:19.907Z,16.90
2019-04-05T11:42:19.882Z,17.10
2019-04-05T11:43:19.816Z,17.70
2019-04-05T11:44:19.782Z,16.90
2019-04-05T11:45:19.752Z,16.10
2019-04-05T11:46:19.704Z,16.00
2019-04-05T11:47:19.922Z,16.10
2019-04-05T11:48:19.610Z,16.60
2019-04-05T11:49:19.600Z,15.90
2019-04-05T11:50:19.572Z,15.80
2019-04-05T11:51:19.515Z,15.70
2019-04-05T11:52:19.455Z,16.60
2019-04-05T11:53:21.855Z,15.60
2019-04-05T11:54:19.386Z,15.60
2019-04-05T11:55:19.346Z,15.20
2019-04-05T11:56:20.059Z,14.10
2019-04-05T11:57:19.263Z,14.90
2019-04-05T11:58:19.237Z,14.10
2019-04-05T11:59:19.209Z,13.90
2019-04-05T12:00:19.181Z,14.10
2019-04-05T12:01:19.105Z,14.70
2019-04-05T12:02:19.077Z,14.10
2019-04-05T12:03:19.041Z,14.30
2019-04-05T12:04:19.004Z,14.40
2019-04-05T12:05:20.384Z,13.80
2019-04-05T12:06:18.934Z,14.40
2019-04-05T12:07:21.720Z,13.70
2019-04-05T12:08:18.850Z,13.90
2019-04-05T12:09:18.805Z,13.80
2019-04-05T12:10:19.564Z,13.90
2019-04-05T12:11:18.740Z,14.50
2019-04-05T12:12:18.675Z,13.30
2019-04-05T12:13:18.648Z,13.50
2019-04-05T12:14:29.690Z,14.20
2019-04-05T12:15:18.554Z,13.80
2019-04-05T12:16:18.524Z,14.50
2019-04-05T12:17:18.496Z,14.60
2019-04-05T12:18:19.689Z,13.90
2019-04-05T12:19:18.426Z,15.50
2019-04-05T12:20:18.362Z,15.00
2019-04-05T12:21:20.724Z,15.10
2019-04-05T12:22:19.933Z,16.10
2019-04-05T12:23:18.246Z,15.90
2019-04-05T12:24:18.229Z,15.70
2019-04-05T12:25:18.170Z,16.10
2019-04-05T12:26:18.138Z,15.70
2019-04-05T12:27:20.758Z,16.00
2019-04-05T12:28:18.046Z,16.70
2019-04-05T12:29:18.009Z,16.00
2019-04-05T12:30:17.964Z,16.80
2019-04-05T12:31:17.930Z,16.30
2019-04-05T12:32:18.740Z,16.20
2019-04-05T12:33:19.664Z,16.90
2019-04-05T12:34:21.479Z,17.20
2019-04-05T12:35:21.345Z,16.80
2019-04-05T12:36:17.729Z,16.50
2019-04-05T12:37:17.689Z,16.80
2019-04-05T12:38:28.116Z,17.50
2019-04-05T12:39:17.604Z,16.00
2019-04-05T12:40:17.588Z,16.20
2019-04-05T12:41:18.399Z,16.50
2019-04-05T12:42:17.493Z,15.40
2019-04-05T12:43:17.469Z,16.00
2019-04-05T12:44:17.417Z,16.30
2019-04-05T12:45:17.396Z,16.50
2019-04-05T12:46:17.323Z,17.80
2019-04-05T12:47:17.301Z,16.90
2019-04-05T12:48:17.254Z,16.80
2019-04-05T12:49:17.238Z,17.10
2019-04-05T12:50:17.170Z,17.70
2019-04-05T12:51:17.173Z,17.30
2019-04-05T12:52:22.949Z,17.40